createdAt,value
2019-02-20T00:00:12.254Z,20.77
2019-02-20T00:01:11.094Z,20.40
2019-02-20T00:03:43.239Z,22.40
2019-02-20T00:06:16.979Z,23.83
2019-02-20T00:08:47.633Z,20.83
2019-02-20T00:11:17.753Z,22.13
2019-02-20T00:13:47.834Z,15.83
2019-02-20T00:16:21.768Z,26.40
2019-02-20T00:18:52.192Z,15.23
2019-02-20T00:21:22.519Z,15.53
2019-02-20T00:23:52.986Z,18.17
2019-02-20T00:26:23.266Z,16.40
2019-02-20T00:28:53.079Z,16.23
2019-02-20T00:31:23.015Z,12.80
2019-02-20T00:33:53.077Z,7.83
2019-02-20T00:36:37.966Z,10.67
2019-02-20T00:39:11.361Z,12.03
2019-02-20T00:41:41.674Z,10.50
2019-02-20T00:44:22.713Z,9.93
2019-02-20T00:47:10.218Z,13.93
2019-02-20T00:49:43.424Z,12.03
2019-02-20T00:52:32.289Z,12.57
2019-02-20T00:55:02.303Z,12.73
2019-02-20T00:57:32.059Z,12.73
2019-02-20T01:00:02.644Z,16.60
2019-02-20T01:02:33.159Z,15.80
2019-02-20T01:05:02.974Z,16.47
2019-02-20T01:07:32.991Z,12.77
2019-02-20T01:10:03.577Z,14.30
2019-02-20T01:12:33.517Z,11.07
2019-02-20T01:15:05.002Z,11.60
2019-02-20T01:17:34.793Z,14.47
2019-02-20T01:20:05.964Z,12.40
2019-02-20T01:22:36.061Z,15.33
2019-02-20T01:25:06.078Z,9.13
2019-02-20T01:27:35.897Z,14.53
2019-02-20T01:30:08.963Z,11.60
2019-02-20T01:32:40.849Z,14.97
2019-02-20T01:35:12.712Z,15.43
2019-02-20T01:37:42.555Z,10.17
2019-02-20T01:40:12.348Z,15.00
2019-02-20T01:42:42.227Z,13.93
2019-02-20T01:45:15.612Z,15.57
2019-02-20T01:47:45.422Z,10.93
2019-02-20T01:50:15.420Z,17.17
2019-02-20T01:52:45.688Z,10.63
2019-02-20T01:55:19.379Z,12.23
2019-02-20T01:57:52.257Z,9.80
2019-02-20T02:00:22.477Z,16.73
2019-02-20T02:02:52.377Z,15.67
2019-02-20T02:05:22.766Z,13.40
2019-02-20T02:07:53.030Z,14.13
2019-02-20T02:10:22.851Z,20.90
2019-02-20T02:12:52.759Z,15.37
2019-02-20T02:15:24.606Z,15.63
2019-02-20T02:17:54.447Z,10.70
2019-02-20T02:20:24.407Z,10.60
2019-02-20T02:22:54.523Z,13.57
2019-02-20T02:25:24.378Z,13.03
2019-02-20T02:27:54.740Z,14.23
2019-02-20T02:30:25.040Z,11.73
2019-02-20T02:32:54.829Z,15.63
2019-02-20T02:35:24.648Z,13.50
2019-02-20T02:37:54.370Z,12.70
2019-02-20T02:40:24.505Z,13.23
2019-02-20T02:42:54.450Z,12.10
2019-02-20T02:45:24.634Z,12.67
2019-02-20T02:47:54.439Z,10.53
2019-02-20T02:50:24.333Z,14.30
2019-02-20T02:53:03.109Z,10.50
2019-02-20T02:55:33.059Z,13.50
2019-02-20T02:58:02.882Z,17.90
2019-02-20T03:00:32.697Z,8.40
2019-02-20T03:03:02.783Z,13.53
2019-02-20T03:05:32.647Z,8.47
2019-02-20T03:08:02.795Z,9.13
2019-02-20T03:10:39.377Z,17.57
2019-02-20T03:13:09.226Z,10.57
2019-02-20T03:15:41.957Z,13.43
2019-02-20T03:18:13.050Z,11.33
2019-02-20T03:20:45.152Z,11.10
2019-02-20T03:23:14.942Z,10.77
2019-02-20T03:25:45.265Z,8.63
2019-02-20T03:28:15.033Z,9.93
2019-02-20T03:30:44.841Z,8.93
2019-02-20T03:33:15.303Z,8.57
2019-02-20T03:36:04.462Z,8.60
2019-02-20T03:38:34.986Z,6.87
2019-02-20T03:41:05.370Z,10.77
2019-02-20T03:43:35.221Z,13.87
2019-02-20T03:46:05.113Z,6.50
2019-02-20T03:48:34.871Z,10.57
2019-02-20T03:51:13.433Z,7.20
2019-02-20T03:53:51.431Z,10.43
2019-02-20T03:56:18.141Z,13.87
2019-02-20T03:58:47.943Z,5.97
2019-02-20T04:01:17.704Z,15.13
2019-02-20T04:03:47.671Z,14.70
2019-02-20T04:06:17.925Z,13.53
2019-02-20T04:08:53.815Z,14.50
2019-02-20T04:11:23.607Z,12.43
2019-02-20T04:13:58.365Z,14.20
2019-02-20T04:16:30.149Z,15.77
2019-02-20T04:19:02.346Z,12.20
2019-02-20T04:22:08.041Z,13.30
2019-02-20T04:24:37.957Z,16.03
2019-02-20T04:27:07.762Z,13.20
2019-02-20T04:29:40.442Z,20.90
2019-02-20T04:32:10.702Z,16.87
2019-02-20T04:34:40.501Z,14.90
2019-02-20T04:37:19.353Z,15.77
2019-02-20T04:39:49.187Z,14.90
2019-02-20T04:42:18.986Z,15.07
2019-02-20T04:44:51.108Z,14.50
2019-02-20T04:47:20.492Z,10.87
2019-02-20T04:49:50.335Z,16.23
2019-02-20T04:52:26.033Z,14.13
2019-02-20T04:54:56.374Z,13.20
2019-02-20T04:57:26.316Z,13.33
2019-02-20T05:00:01.514Z,18.00
2019-02-20T05:02:31.716Z,17.93
2019-02-20T05:05:02.020Z,31.17
2019-02-20T05:07:33.391Z,36.63
2019-02-20T05:10:03.736Z,51.27
2019-02-20T05:12:46.674Z,23.93
2019-02-20T05:15:16.602Z,33.83
2019-02-20T05:17:46.641Z,29.30
2019-02-20T05:20:22.327Z,33.70
2019-02-20T05:22:57.371Z,35.40
2019-02-20T05:25:27.319Z,27.67
2019-02-20T05:28:04.862Z,37.77
2019-02-20T05:30:35.660Z,35.00
2019-02-20T05:33:07.886Z,30.70
2019-02-20T05:35:39.712Z,25.27
2019-02-20T05:38:11.037Z,33.87
2019-02-20T05:40:40.916Z,27.33
2019-02-20T05:43:10.811Z,33.60
2019-02-20T05:45:40.621Z,23.77
2019-02-20T05:48:11.043Z,19.60
2019-02-20T05:50:41.360Z,16.23
2019-02-20T05:53:11.296Z,15.93
2019-02-20T05:55:43.467Z,29.07
2019-02-20T05:58:17.172Z,22.27
2019-02-20T06:00:47.086Z,34.27
2019-02-20T06:03:19.709Z,35.80
2019-02-20T06:05:49.912Z,32.63
2019-02-20T06:08:19.972Z,36.27
2019-02-20T06:10:50.189Z,41.20
2019-02-20T06:13:20.262Z,38.83
2019-02-20T06:15:50.139Z,32.10
2019-02-20T06:18:22.793Z,25.20
2019-02-20T06:20:56.759Z,29.67
2019-02-20T06:23:26.530Z,29.87
2019-02-20T06:25:58.057Z,24.83
2019-02-20T06:28:28.376Z,23.70
2019-02-20T06:30:58.225Z,24.30
2019-02-20T06:33:28.177Z,23.83
2019-02-20T06:35:58.001Z,24.43
2019-02-20T06:38:47.518Z,18.27
2019-02-20T06:41:17.352Z,21.40
2019-02-20T06:43:48.121Z,22.33
2019-02-20T06:46:18.077Z,17.63
2019-02-20T06:48:48.385Z,14.77
2019-02-20T06:51:18.257Z,19.67
2019-02-20T06:53:49.523Z,17.20
2019-02-20T06:56:19.366Z,14.63
2019-02-20T06:58:49.606Z,16.17
2019-02-20T07:01:19.427Z,14.30
2019-02-20T07:03:53.242Z,21.53
2019-02-20T07:07:09.715Z,15.67
2019-02-20T07:14:04.311Z,19.77
2019-02-20T07:16:57.397Z,18.27
2019-02-20T07:19:50.252Z,17.63
2019-02-20T07:22:37.118Z,20.93
2019-02-20T07:25:35.107Z,22.60
2019-02-20T07:28:53.407Z,14.97
2019-02-20T07:31:32.408Z,19.33
2019-02-20T07:34:02.299Z,21.83
2019-02-20T07:36:38.141Z,18.23
2019-02-20T07:39:09.376Z,17.90
2019-02-20T07:41:42.091Z,13.77
2019-02-20T07:44:12.030Z,21.27
2019-02-20T07:46:41.894Z,13.00
2019-02-20T07:49:18.676Z,15.13
2019-02-20T07:51:48.527Z,17.20
2019-02-20T07:54:21.267Z,18.37
2019-02-20T07:57:09.970Z,15.63
2019-02-20T07:59:43.036Z,16.93
2019-02-20T08:02:12.973Z,15.63
2019-02-20T08:04:51.556Z,22.17
2019-02-20T08:07:21.807Z,24.67
2019-02-20T08:09:51.707Z,15.33
2019-02-20T08:12:45.053Z,13.90
2019-02-20T08:15:18.095Z,13.27
2019-02-20T08:17:48.360Z,24.83
2019-02-20T08:20:18.516Z,16.37
2019-02-20T08:22:48.731Z,19.67
2019-02-20T08:25:22.968Z,19.10
2019-02-20T08:27:57.274Z,22.50
2019-02-20T08:30:35.501Z,17.87
2019-02-20T08:33:05.333Z,22.17
2019-02-20T08:35:36.761Z,18.87
2019-02-20T08:38:07.521Z,19.17
2019-02-20T08:40:37.427Z,17.80
2019-02-20T08:43:08.229Z,13.67
2019-02-20T08:45:41.351Z,19.97
2019-02-20T08:48:11.195Z,18.93
2019-02-20T08:50:43.307Z,21.33
2019-02-20T08:53:14.827Z,18.77
2019-02-20T08:55:47.109Z,22.57
2019-02-20T08:58:17.432Z,19.17
2019-02-20T09:04:03.904Z,20.50
2019-02-20T09:06:33.995Z,20.73
2019-02-20T09:09:06.227Z,18.47
2019-02-20T09:11:38.484Z,20.73
2019-02-20T09:14:14.186Z,21.77
2019-02-20T09:16:58.193Z,23.50
2019-02-20T09:22:39.533Z,16.83
2019-02-20T09:25:19.554Z,15.97
2019-02-20T09:27:44.020Z,15.30
2019-02-20T09:30:14.847Z,15.50
2019-02-20T09:32:45.272Z,20.87
2019-02-20T09:35:30.971Z,15.80
2019-02-20T09:38:06.431Z,22.17
2019-02-20T09:40:57.534Z,16.43
2019-02-20T09:43:27.356Z,23.33
2019-02-20T09:46:00.510Z,15.00
2019-02-20T09:48:30.424Z,17.20
2019-02-20T09:51:01.001Z,17.27
2019-02-20T09:53:33.330Z,13.03
2019-02-20T09:56:03.177Z,20.30
2019-02-20T09:58:34.189Z,24.30
2019-02-20T10:01:09.678Z,21.47
2019-02-20T10:03:40.714Z,21.97
2019-02-20T10:06:25.006Z,21.90
2019-02-20T10:09:00.040Z,24.60
2019-02-20T10:11:36.857Z,22.43
2019-02-20T10:14:08.421Z,16.80
2019-02-20T10:16:41.075Z,21.27
2019-02-20T10:19:10.875Z,19.73
2019-02-20T10:21:41.466Z,20.00
2019-02-20T10:24:12.892Z,21.37
2019-02-20T10:27:00.476Z,25.40
2019-02-20T10:29:25.074Z,26.07
2019-02-20T10:31:55.181Z,18.30
2019-02-20T10:34:28.654Z,28.33
2019-02-20T10:37:02.801Z,19.67
2019-02-20T10:39:33.049Z,22.70
2019-02-20T10:42:03.251Z,25.43
2019-02-20T10:44:33.357Z,24.23
2019-02-20T10:47:05.776Z,24.93
2019-02-20T10:49:40.036Z,22.17
2019-02-20T10:52:14.930Z,27.23
2019-02-20T10:54:46.625Z,26.30
2019-02-20T10:57:16.615Z,20.60
2019-02-20T10:59:48.042Z,19.43
2019-02-20T11:02:17.956Z,19.23
2019-02-20T11:04:50.953Z,25.27
2019-02-20T11:07:21.026Z,17.33
2019-02-20T11:09:51.610Z,20.10
2019-02-20T11:12:46.695Z,24.27
2019-02-20T11:15:21.855Z,22.80
2019-02-20T11:17:52.030Z,19.37
2019-02-20T11:20:26.244Z,19.33
2019-02-20T11:22:56.480Z,19.67
2019-02-20T11:25:29.131Z,19.17
2019-02-20T11:28:11.415Z,22.77
2019-02-20T11:30:41.860Z,24.30
2019-02-20T11:33:12.272Z,21.03
2019-02-20T11:35:47.757Z,20.57
2019-02-20T11:38:17.905Z,22.70
2019-02-20T11:40:48.386Z,19.20
2019-02-20T11:43:22.136Z,19.43
2019-02-20T11:45:59.351Z,17.77
2019-02-20T11:48:32.542Z,20.57
2019-02-20T11:51:10.362Z,23.40
2019-02-20T11:53:46.304Z,21.47
2019-02-20T11:56:16.625Z,19.57
2019-02-20T11:58:46.562Z,27.90
2019-02-20T12:01:20.138Z,24.97
2019-02-20T12:03:50.777Z,27.40
2019-02-20T12:06:23.420Z,25.00
2019-02-20T12:08:53.361Z,28.83
2019-02-20T12:11:23.325Z,24.87
2019-02-20T12:13:53.289Z,28.20
2019-02-20T12:16:27.257Z,25.90
2019-02-20T12:18:57.555Z,23.73
2019-02-20T12:21:28.462Z,24.97
2019-02-20T12:23:58.690Z,24.53
2019-02-20T12:26:34.829Z,20.17
2019-02-20T12:29:02.717Z,20.93
2019-02-20T12:32:33.370Z,21.33
2019-02-20T12:35:04.044Z,19.40
2019-02-20T12:37:36.399Z,20.30
2019-02-20T12:40:06.663Z,21.87
2019-02-20T12:42:44.303Z,21.20
2019-02-20T12:45:16.252Z,17.30
2019-02-20T12:47:46.391Z,16.40
2019-02-20T12:50:30.667Z,23.20
2019-02-20T12:53:10.995Z,17.50
2019-02-20T12:55:41.205Z,22.60
2019-02-20T12:58:14.422Z,16.47
2019-02-20T13:00:44.390Z,19.40
2019-02-20T13:03:14.246Z,19.07
2019-02-20T13:05:44.366Z,20.33
2019-02-20T13:08:14.339Z,15.70
2019-02-20T13:10:44.424Z,14.17
2019-02-20T13:13:17.315Z,16.20
2019-02-20T13:15:56.590Z,14.53
2019-02-20T13:18:31.227Z,13.87
2019-02-20T13:21:01.351Z,19.30
2019-02-20T13:23:57.980Z,13.13
2019-02-20T13:26:29.191Z,15.90
2019-02-20T13:29:20.421Z,18.33
2019-02-20T13:31:53.482Z,19.00
2019-02-20T13:34:24.694Z,15.83
2019-02-20T13:36:57.309Z,17.00
2019-02-20T13:39:27.201Z,13.97
2019-02-20T13:42:08.886Z,15.97
2019-02-20T13:44:48.949Z,12.97
2019-02-20T13:47:19.515Z,13.00
2019-02-20T13:49:50.450Z,19.40
2019-02-20T13:52:23.756Z,18.50
2019-02-20T13:54:56.229Z,16.70
2019-02-20T13:57:26.604Z,14.10
2019-02-20T13:59:56.958Z,15.27
2019-02-20T14:02:31.008Z,15.47
2019-02-20T14:05:00.965Z,19.00
2019-02-20T14:07:33.305Z,21.23
2019-02-20T14:10:03.721Z,13.50
2019-02-20T14:12:33.875Z,12.43
2019-02-20T14:15:03.913Z,18.57
2019-02-20T14:17:36.149Z,14.53
2019-02-20T14:20:10.640Z,12.80
2019-02-20T14:22:41.737Z,15.03
2019-02-20T14:25:14.776Z,17.67
2019-02-20T14:27:44.744Z,17.97
2019-02-20T14:30:20.825Z,15.53
2019-02-20T14:32:50.920Z,16.27
2019-02-20T14:35:21.431Z,13.00
2019-02-20T14:37:54.291Z,17.60
2019-02-20T14:40:24.476Z,15.77
2019-02-20T14:42:59.408Z,16.53
2019-02-20T14:45:35.376Z,31.70
2019-02-20T14:48:08.454Z,26.67
2019-02-20T14:50:38.949Z,23.13
2019-02-20T14:53:10.364Z,22.70
2019-02-20T14:55:49.089Z,14.37
2019-02-20T14:58:19.045Z,10.93
2019-02-20T15:01:02.297Z,12.47
2019-02-20T15:03:38.209Z,15.63
2019-02-20T15:06:10.740Z,11.67
2019-02-20T15:08:46.615Z,16.13
2019-02-20T15:11:17.488Z,14.87
2019-02-20T15:13:51.187Z,17.90
2019-02-20T15:16:25.285Z,11.27
2019-02-20T15:18:58.448Z,11.77
2019-02-20T15:21:53.105Z,16.00
2019-02-20T15:24:17.942Z,14.47
2019-02-20T15:27:15.047Z,10.90
2019-02-20T15:29:49.090Z,11.27
2019-02-20T15:33:04.581Z,12.57
2019-02-20T15:35:38.098Z,12.43
2019-02-20T15:38:11.101Z,8.93
2019-02-20T15:40:46.752Z,11.00
2019-02-20T15:43:20.762Z,10.07
2019-02-20T15:45:51.394Z,10.87
2019-02-20T15:48:30.461Z,11.83
2019-02-20T15:51:00.845Z,13.07
2019-02-20T15:53:32.529Z,13.23
2019-02-20T15:56:10.770Z,10.73
2019-02-20T15:58:44.156Z,11.27
2019-02-20T16:01:14.525Z,10.03
2019-02-20T16:03:49.925Z,10.57
2019-02-20T16:06:25.329Z,7.20
2019-02-20T16:08:55.353Z,9.97
2019-02-20T16:11:43.018Z,11.93
2019-02-20T16:14:13.576Z,10.87
2019-02-20T16:16:44.550Z,10.63
2019-02-20T16:19:17.528Z,15.13
2019-02-20T16:21:47.450Z,8.67
2019-02-20T16:24:17.772Z,7.80
2019-02-20T16:26:48.810Z,7.30
2019-02-20T16:29:22.202Z,12.10
2019-02-20T16:32:06.720Z,9.37
2019-02-20T16:34:41.010Z,12.33
2019-02-20T16:37:12.902Z,8.70
2019-02-20T16:40:06.661Z,10.13
2019-02-20T16:46:53.075Z,7.97
2019-02-20T17:00:06.347Z,12.83
2019-02-20T17:02:42.824Z,9.03
2019-02-20T17:08:10.617Z,8.87
2019-02-20T17:10:44.351Z,11.10
2019-02-20T17:13:19.278Z,8.93
2019-02-20T17:15:49.473Z,10.17
2019-02-20T17:18:20.690Z,8.53
2019-02-20T17:20:53.004Z,9.30
2019-02-20T17:23:30.745Z,17.63
2019-02-20T17:26:05.199Z,18.40
2019-02-20T17:28:38.254Z,15.40
2019-02-20T17:31:09.382Z,13.97
2019-02-20T17:33:43.045Z,14.20
2019-02-20T17:36:31.206Z,15.07
2019-02-20T17:39:07.203Z,20.80
2019-02-20T17:41:46.070Z,11.80
2019-02-20T17:44:17.618Z,14.60
2019-02-20T17:46:49.269Z,13.67
2019-02-20T17:49:38.811Z,16.73
2019-02-20T17:52:13.322Z,11.63
2019-02-20T17:54:46.195Z,8.37
2019-02-20T17:57:38.606Z,9.40
2019-02-20T18:00:17.175Z,8.50
2019-02-20T18:02:53.605Z,11.90
2019-02-20T18:05:24.103Z,8.93
2019-02-20T18:07:55.533Z,30.97
2019-02-20T18:10:49.193Z,45.03
2019-02-20T18:13:22.560Z,40.40
2019-02-20T18:16:06.222Z,34.70
2019-02-20T18:18:36.720Z,40.83
2019-02-20T18:21:12.675Z,36.93
2019-02-20T18:23:54.541Z,40.77
2019-02-20T18:26:41.694Z,36.30
2019-02-20T18:29:34.583Z,24.73
2019-02-20T18:32:14.368Z,31.33
2019-02-20T18:35:04.664Z,20.07
2019-02-20T18:37:52.233Z,18.73
2019-02-20T18:44:20.433Z,16.77
2019-02-20T18:47:00.753Z,12.33
2019-02-20T18:49:45.310Z,16.93
2019-02-20T18:52:49.750Z,18.10
2019-02-20T18:58:34.253Z,15.77
2019-02-20T19:01:06.727Z,21.67
2019-02-20T19:03:45.717Z,19.77
2019-02-20T19:06:15.981Z,15.77
2019-02-20T19:09:04.893Z,15.63
2019-02-20T19:12:18.299Z,16.00
2019-02-20T19:15:25.843Z,14.87
2019-02-20T19:18:38.314Z,16.47
2019-02-20T19:22:06.515Z,25.67
2019-02-20T19:25:04.974Z,18.87
2019-02-20T19:27:57.276Z,17.10
2019-02-20T19:31:05.560Z,13.03
2019-02-20T19:33:48.750Z,17.80
2019-02-20T19:37:14.817Z,14.13
2019-02-20T19:40:36.390Z,13.93
2019-02-20T19:43:58.304Z,13.93
2019-02-20T19:46:57.559Z,15.30
2019-02-20T19:50:19.198Z,14.00
2019-02-20T19:53:10.305Z,15.33
2019-02-20T19:59:47.257Z,16.87
2019-02-20T20:03:14.740Z,19.63
2019-02-20T20:06:44.777Z,18.67
2019-02-20T20:10:05.405Z,19.13
2019-02-20T20:13:47.804Z,31.27
2019-02-20T20:20:07.749Z,23.87
2019-02-20T20:23:06.354Z,21.40
2019-02-20T20:26:42.129Z,19.47
2019-02-20T20:29:53.699Z,22.50
2019-02-20T20:33:38.389Z,18.70
2019-02-20T20:36:50.974Z,20.80
2019-02-20T20:39:58.637Z,24.60
2019-02-20T20:43:20.442Z,23.53
2019-02-20T20:46:59.217Z,28.97
2019-02-20T20:50:08.523Z,34.30
2019-02-20T20:53:15.371Z,32.10
2019-02-20T20:56:28.941Z,39.40
2019-02-20T20:59:35.278Z,36.23
2019-02-20T21:02:40.001Z,28.90
2019-02-20T21:05:53.171Z,29.23
2019-02-20T21:09:05.307Z,22.83
2019-02-20T21:12:22.342Z,20.90
2019-02-20T21:15:28.286Z,18.63
2019-02-20T21:19:05.357Z,18.50
2019-02-20T21:21:43.730Z,20.90
2019-02-20T21:25:04.452Z,19.60
2019-02-20T21:28:12.574Z,18.10
2019-02-20T21:31:40.089Z,22.13
2019-02-20T21:35:02.815Z,20.87
2019-02-20T21:38:20.629Z,22.50
2019-02-20T21:41:21.335Z,20.00
2019-02-20T21:44:30.950Z,20.63
2019-02-20T21:47:58.204Z,22.53
2019-02-20T21:51:12.549Z,22.67
2019-02-20T21:54:21.575Z,24.23
2019-02-20T21:57:23.642Z,18.00
2019-02-20T22:00:37.423Z,24.63
2019-02-20T22:03:46.243Z,25.03
2019-02-20T22:07:09.415Z,28.40
2019-02-20T22:10:30.864Z,24.43
2019-02-20T22:13:47.075Z,22.93
2019-02-20T22:16:51.673Z,22.67
2019-02-20T22:19:55.678Z,22.00
2019-02-20T22:23:05.504Z,21.57
2019-02-20T22:26:03.481Z,20.37
2019-02-20T22:29:17.359Z,25.87
2019-02-20T22:32:20.427Z,21.43
2019-02-20T22:35:34.194Z,20.17
2019-02-20T22:38:44.052Z,24.27
2019-02-20T22:45:36.866Z,27.73
2019-02-20T22:48:35.092Z,19.80
2019-02-20T22:51:54.801Z,18.60
2019-02-20T22:55:14.647Z,17.20
2019-02-20T22:58:02.584Z,20.63
2019-02-20T23:01:10.371Z,19.53
2019-02-20T23:04:10.378Z,23.40
2019-02-20T23:07:16.199Z,24.00
2019-02-20T23:10:18.157Z,19.70
2019-02-20T23:13:21.277Z,20.93
2019-02-20T23:15:51.614Z,17.73
2019-02-20T23:18:39.772Z,19.40
2019-02-20T23:21:10.693Z,18.10
2019-02-20T23:23:44.940Z,20.13
2019-02-20T23:26:16.045Z,23.63
2019-02-20T23:28:48.249Z,20.03
2019-02-20T23:31:22.445Z,20.00
2019-02-20T23:33:54.215Z,17.63
2019-02-20T23:42:37.710Z,17.03
2019-02-20T23:45:08.559Z,19.97
2019-02-20T23:47:38.834Z,15.10
2019-02-20T23:50:09.778Z,15.80
2019-02-20T23:52:40.514Z,19.63
2019-02-20T23:57:47.968Z,20.10
